WXM80 ListenWXM80 Stop

You find our weather info also at:

UK Metoffice

WeatherCloud

Weather Underground

Northeastern Weather Network

AWEKAS

Citizen Weather Observer Program (CWOP)

HAMweather, WeatherForYou, PWS Weather


Weather Underground History page Text

Daily Summary for February 5, 2018 Units:  Both    English   Metric
« Previous Day
Next Day »
Daily Weekly Monthly Yearly Custom
  High: Low: Average:
Temperature: 42.3 °F /  5.7 °C 24.9 °F /  -3.9 °C 34.1 °F /  1.2 °C
Dew Point: 41.2 °F /  5.1 °C 13.0 °F /  -10.6 °C 24.8 °F /  -4 °C
Humidity: 96 % 47 % 70 %
Wind Speed: 13.3 mph /  21.4 km/h - 4.9 mph /  7.9 km/h
Wind Gust: 22.0 mph /  35.4 km/h - -
Wind:- - West
Pressure: 30.06 in /  1017.8 hPa 29.34 in /  993.5 hPa -
Precipitation: 0.05 in /  1.27 mm    
Historical Graphs
 
 
Tabular Data for February 5, 2018
Time Temperature Dew Point Pressure Wind Wind Speed Wind Gust Humidity Rainfall Rate (Hourly)
00:04 41.3 °F /  5.2 °C 40.0 °F /  4.4 °C 29.34 in /  993.5 hPa West 1.6 mph /  2.6 km/h 3.5 mph /  5.6 km/h 95 % 0.06 in /  1.52 mm
00:09 41.2 °F /  5.1 °C 39.9 °F /  4.4 °C 29.34 in /  993.5 hPa WSW 1.3 mph /  2.1 km/h 3.5 mph /  5.6 km/h 95 % 0.06 in /  1.52 mm
00:14 41.4 °F /  5.2 °C 40.1 °F /  4.5 °C 29.34 in /  993.5 hPa WNW 3.5 mph /  5.6 km/h 5.8 mph /  9.3 km/h 95 % 0.05 in /  1.27 mm
00:19 41.6 °F /  5.3 °C 40.5 °F /  4.7 °C 29.34 in /  993.5 hPa West 3.2 mph /  5.1 km/h 5.8 mph /  9.3 km/h 96 % 0.05 in /  1.27 mm
00:24 41.8 °F /  5.4 °C 40.7 °F /  4.8 °C 29.34 in /  993.5 hPa WSW 3.2 mph /  5.1 km/h 7.0 mph /  11.3 km/h 96 % 0.05 in /  1.27 mm
00:29 42.2 °F /  5.7 °C 41.1 °F /  5.1 °C 29.34 in /  993.5 hPa West 5.5 mph /  8.9 km/h 11.5 mph /  18.5 km/h 96 % 0.05 in /  1.27 mm
00:34 42.3 °F /  5.7 °C 41.2 °F /  5.1 °C 29.34 in /  993.5 hPa NW 3.7 mph /  6 km/h 9.2 mph /  14.8 km/h 96 % 0.05 in /  1.27 mm
00:39 42.3 °F /  5.7 °C 41.2 °F /  5.1 °C 29.34 in /  993.5 hPa West 3.9 mph /  6.3 km/h 9.2 mph /  14.8 km/h 96 % 0.06 in /  1.52 mm
00:44 42.2 °F /  5.7 °C 41.1 °F /  5.1 °C 29.34 in /  993.5 hPa West 5.7 mph /  9.2 km/h 7.0 mph /  11.3 km/h 96 % 0.06 in /  1.52 mm
00:49 42.1 °F /  5.6 °C 41.0 °F /  5 °C 29.34 in /  993.5 hPa NW 4.5 mph /  7.2 km/h 8.1 mph /  13 km/h 96 % 0.05 in /  1.27 mm
00:54 41.9 °F /  5.5 °C 40.8 °F /  4.9 °C 29.34 in /  993.5 hPa WNW 4.0 mph /  6.4 km/h 11.5 mph /  18.5 km/h 96 % 0.05 in /  1.27 mm
01:00 41.8 °F /  5.4 °C 40.7 °F /  4.8 °C 29.34 in /  993.5 hPa WSW 5.1 mph /  8.2 km/h 6.9 mph /  11.1 km/h 96 % 0.04 in /  1.02 mm
01:04 41.7 °F /  5.4 °C 40.6 °F /  4.8 °C 29.34 in /  993.5 hPa West 4.2 mph /  6.8 km/h 7.0 mph /  11.3 km/h 96 % 0.04 in /  1.02 mm
01:10 41.6 °F /  5.3 °C 40.5 °F /  4.7 °C 29.34 in /  993.5 hPa West 2.5 mph /  4 km/h 4.6 mph /  7.4 km/h 96 % 0.03 in /  0.76 mm
01:15 41.5 °F /  5.3 °C 40.4 °F /  4.7 °C 29.34 in /  993.5 hPa WNW 3.3 mph /  5.3 km/h 6.9 mph /  11.1 km/h 96 % 0.03 in /  0.76 mm
01:20 41.4 °F /  5.2 °C 40.3 °F /  4.6 °C 29.34 in /  993.5 hPa West 1.8 mph /  2.9 km/h 4.6 mph /  7.4 km/h 96 % 0.02 in /  0.51 mm
01:25 41.3 °F /  5.2 °C 40.2 °F /  4.6 °C 29.34 in /  993.5 hPa WNW 3.5 mph /  5.6 km/h 6.9 mph /  11.1 km/h 96 % 0.02 in /  0.51 mm
01:30 41.1 °F /  5.1 °C 40.0 °F /  4.4 °C 29.35 in /  993.8 hPa West 2.8 mph /  4.5 km/h 4.6 mph /  7.4 km/h 96 % 0.01 in /  0.25 mm
01:35 40.9 °F /  4.9 °C 39.8 °F /  4.3 °C 29.35 in /  993.8 hPa WSW 2.3 mph /  3.7 km/h 3.5 mph /  5.6 km/h 96 % 0.01 in /  0.25 mm
01:40 40.7 °F /  4.8 °C 39.6 °F /  4.2 °C 29.35 in /  993.8 hPa WSW 1.4 mph /  2.3 km/h 3.5 mph /  5.6 km/h 96 % 0.00 in /  0 mm
01:45 40.6 °F /  4.8 °C 39.5 °F /  4.2 °C 29.35 in /  993.8 hPa Calm     96 % 0.01 in /  0.25 mm
01:50 40.4 °F /  4.7 °C 39.4 °F /  4.1 °C 29.35 in /  993.8 hPa WSW 0.1 mph /  0.2 km/h 2.3 mph /  3.7 km/h 96 % 0.01 in /  0.25 mm
01:55 40.1 °F /  4.5 °C 39.1 °F /  3.9 °C 29.35 in /  993.8 hPa West 1.3 mph /  2.1 km/h 3.5 mph /  5.6 km/h 96 % 0.01 in /  0.25 mm
02:00 39.8 °F /  4.3 °C 38.8 °F /  3.8 °C 29.35 in /  993.8 hPa Calm     96 % 0.01 in /  0.25 mm
02:05 39.7 °F /  4.3 °C 38.4 °F /  3.6 °C 29.35 in /  993.8 hPa West 1.3 mph /  2.1 km/h 2.3 mph /  3.7 km/h 95 % 0.01 in /  0.25 mm
02:10 39.5 °F /  4.2 °C 38.2 °F /  3.4 °C 29.35 in /  993.8 hPa WSW 2.5 mph /  4 km/h 3.5 mph /  5.6 km/h 95 % 0.01 in /  0.25 mm
02:15 39.3 °F /  4.1 °C 38.0 °F /  3.3 °C 29.34 in /  993.5 hPa WSW 2.0 mph /  3.2 km/h 3.5 mph /  5.6 km/h 95 % 0.01 in /  0.25 mm
02:20 39.2 °F /  4 °C 37.9 °F /  3.3 °C 29.35 in /  993.8 hPa West 4.0 mph /  6.4 km/h 6.9 mph /  11.1 km/h 95 % 0.01 in /  0.25 mm
02:25 39.0 °F /  3.9 °C 37.7 °F /  3.2 °C 29.35 in /  993.8 hPa WSW 3.4 mph /  5.5 km/h 4.0 mph /  6.4 km/h 95 % 0.01 in /  0.25 mm
02:31 38.9 °F /  3.8 °C 37.9 °F /  3.3 °C 29.36 in /  994.1 hPa WSW 5.0 mph /  8 km/h 9.0 mph /  14.5 km/h 96 % 0.00 in /  0 mm
02:36 38.9 °F /  3.8 °C 37.9 °F /  3.3 °C 29.36 in /  994.1 hPa WSW 3.0 mph /  4.8 km/h 8.0 mph /  12.9 km/h 96 % 0.00 in /  0 mm
02:41 38.8 °F /  3.8 °C 37.8 °F /  3.2 °C 29.36 in /  994.1 hPa WSW 2.0 mph /  3.2 km/h 7.0 mph /  11.3 km/h 96 % 0.00 in /  0 mm
02:46 38.8 °F /  3.8 °C 37.8 °F /  3.2 °C 29.36 in /  994.1 hPa West 6.0 mph /  9.7 km/h 12.0 mph /  19.3 km/h 96 % 0.00 in /  0 mm
02:51 38.8 °F /  3.8 °C 37.8 °F /  3.2 °C 29.37 in /  994.5 hPa WSW 10.0 mph /  16.1 km/h 16.0 mph /  25.7 km/h 96 % 0.00 in /  0 mm
02:56 38.7 °F /  3.7 °C 37.7 °F /  3.2 °C 29.37 in /  994.5 hPa WSW 7.0 mph /  11.3 km/h 15.0 mph /  24.1 km/h 96 % 0.00 in /  0 mm
03:01 38.7 °F /  3.7 °C 37.7 °F /  3.2 °C 29.37 in /  994.5 hPa WSW 6.5 mph /  10.5 km/h 11.5 mph /  18.5 km/h 96 % 0.00 in /  0 mm
03:06 38.6 °F /  3.7 °C 37.6 °F /  3.1 °C 29.37 in /  994.5 hPa West 6.0 mph /  9.7 km/h 16.0 mph /  25.7 km/h 96 % 0.00 in /  0 mm
03:11 38.5 °F /  3.6 °C 37.2 °F /  2.9 °C 29.36 in /  994.1 hPa West 6.2 mph /  10 km/h 10.4 mph /  16.7 km/h 95 % 0.00 in /  0 mm
03:16 38.4 °F /  3.6 °C 37.4 °F /  3 °C 29.37 in /  994.5 hPa West 6.0 mph /  9.7 km/h 13.0 mph /  20.9 km/h 96 % 0.00 in /  0 mm
03:21 38.3 °F /  3.5 °C 37.0 °F /  2.8 °C 29.38 in /  994.8 hPa West 7.0 mph /  11.3 km/h 12.0 mph /  19.3 km/h 95 % 0.00 in /  0 mm
03:26 38.2 °F /  3.4 °C 36.9 °F /  2.7 °C 29.38 in /  994.8 hPa West 7.0 mph /  11.3 km/h 13.0 mph /  20.9 km/h 95 % 0.00 in /  0 mm
03:31 38.0 °F /  3.3 °C 36.7 °F /  2.6 °C 29.38 in /  994.8 hPa West 7.0 mph /  11.3 km/h 13.0 mph /  20.9 km/h 95 % 0.00 in /  0 mm
03:36 37.9 °F /  3.3 °C 36.6 °F /  2.6 °C 29.38 in /  994.8 hPa West 3.0 mph /  4.8 km/h 15.0 mph /  24.1 km/h 95 % 0.00 in /  0 mm
03:41 37.8 °F /  3.2 °C 36.5 °F /  2.5 °C 29.39 in /  995.1 hPa West 3.0 mph /  4.8 km/h 13.0 mph /  20.9 km/h 95 % 0.00 in /  0 mm
03:46 37.7 °F /  3.2 °C 36.4 °F /  2.4 °C 29.39 in /  995.1 hPa West 3.0 mph /  4.8 km/h 12.0 mph /  19.3 km/h 95 % 0.00 in /  0 mm
03:51 37.6 °F /  3.1 °C 36.3 °F /  2.4 °C 29.39 in /  995.1 hPa WSW 3.0 mph /  4.8 km/h 10.0 mph /  16.1 km/h 95 % 0.00 in /  0 mm
03:56 37.5 °F /  3.1 °C 36.2 °F /  2.3 °C 29.40 in /  995.5 hPa WSW 4.4 mph /  7.1 km/h 9.2 mph /  14.8 km/h 95 % 0.00 in /  0 mm
04:01 37.3 °F /  2.9 °C 36.0 °F /  2.2 °C 29.39 in /  995.1 hPa WSW 4.6 mph /  7.4 km/h 6.0 mph /  9.7 km/h 95 % 0.00 in /  0 mm
04:06 37.2 °F /  2.9 °C 35.9 °F /  2.2 °C 29.40 in /  995.5 hPa WNW 8.1 mph /  13 km/h 11.5 mph /  18.5 km/h 95 % 0.00 in /  0 mm
04:11 37.2 °F /  2.9 °C 35.9 °F /  2.2 °C 29.40 in /  995.5 hPa West 9.2 mph /  14.8 km/h 18.4 mph /  29.6 km/h 95 % 0.00 in /  0 mm
04:16 37.1 °F /  2.8 °C 35.8 °F /  2.1 °C 29.41 in /  995.8 hPa West 4.2 mph /  6.8 km/h 12.7 mph /  20.4 km/h 95 % 0.00 in /  0 mm
04:21 37.0 °F /  2.8 °C 35.4 °F /  1.9 °C 29.41 in /  995.8 hPa SW 5.4 mph /  8.7 km/h 8.1 mph /  13 km/h 94 % 0.00 in /  0 mm
04:26 37.0 °F /  2.8 °C 35.4 °F /  1.9 °C 29.40 in /  995.5 hPa West 6.8 mph /  10.9 km/h 11.5 mph /  18.5 km/h 94 % 0.00 in /  0 mm
04:31 36.9 °F /  2.7 °C 35.3 °F /  1.8 °C 29.41 in /  995.8 hPa WSW 4.8 mph /  7.7 km/h 9.2 mph /  14.8 km/h 94 % 0.00 in /  0 mm
04:36 36.9 °F /  2.7 °C 35.3 °F /  1.8 °C 29.41 in /  995.8 hPa SW 5.4 mph /  8.7 km/h 10.4 mph /  16.7 km/h 94 % 0.00 in /  0 mm
04:41 36.8 °F /  2.7 °C 35.2 °F /  1.8 °C 29.41 in /  995.8 hPa SW 3.7 mph /  6 km/h 10.0 mph /  16.1 km/h 94 % 0.00 in /  0 mm
04:46 36.7 °F /  2.6 °C 35.1 °F /  1.7 °C 29.42 in /  996.2 hPa WSW 5.2 mph /  8.4 km/h 8.0 mph /  12.9 km/h 94 % 0.00 in /  0 mm
04:51 36.7 °F /  2.6 °C 35.1 °F /  1.7 °C 29.42 in /  996.2 hPa West 8.1 mph /  13 km/h 10.4 mph /  16.7 km/h 94 % 0.00 in /  0 mm
04:56 36.6 °F /  2.6 °C 35.0 °F /  1.7 °C 29.42 in /  996.2 hPa WSW 5.0 mph /  8 km/h 9.2 mph /  14.8 km/h 94 % 0.00 in /  0 mm
05:01 36.5 °F /  2.5 °C 34.7 °F /  1.5 °C 29.42 in /  996.2 hPa WNW 2.8 mph /  4.5 km/h 5.8 mph /  9.3 km/h 93 % 0.00 in /  0 mm
05:06 36.5 °F /  2.5 °C 34.9 °F /  1.6 °C 29.42 in /  996.2 hPa WSW 4.4 mph /  7.1 km/h 10.4 mph /  16.7 km/h 94 % 0.00 in /  0 mm
05:12 36.5 °F /  2.5 °C 34.7 °F /  1.5 °C 29.42 in /  996.2 hPa WSW 5.2 mph /  8.4 km/h 11.5 mph /  18.5 km/h 93 % 0.00 in /  0 mm
05:17 36.5 °F /  2.5 °C 34.7 °F /  1.5 °C 29.42 in /  996.2 hPa SW 7.8 mph /  12.6 km/h 15.0 mph /  24.1 km/h 93 % 0.00 in /  0 mm
05:22 36.6 °F /  2.6 °C 34.8 °F /  1.6 °C 29.43 in /  996.5 hPa West 5.3 mph /  8.5 km/h 12.7 mph /  20.4 km/h 93 % 0.00 in /  0 mm
05:27 36.7 °F /  2.6 °C 34.9 °F /  1.6 °C 29.44 in /  996.8 hPa West 3.8 mph /  6.1 km/h 11.5 mph /  18.5 km/h 93 % 0.00 in /  0 mm
05:32 36.7 °F /  2.6 °C 34.9 °F /  1.6 °C 29.44 in /  996.8 hPa SW 4.9 mph /  7.9 km/h 16.1 mph /  25.9 km/h 93 % 0.00 in /  0 mm
05:37 36.8 °F /  2.7 °C 35.0 °F /  1.7 °C 29.44 in /  996.8 hPa West 2.4 mph /  3.9 km/h 9.2 mph /  14.8 km/h 93 % 0.00 in /  0 mm
05:42 36.8 °F /  2.7 °C 34.7 °F /  1.5 °C 29.45 in /  997.2 hPa WSW 1.4 mph /  2.3 km/h 8.1 mph /  13 km/h 92 % 0.00 in /  0 mm
05:47 36.8 °F /  2.7 °C 34.7 °F /  1.5 °C 29.45 in /  997.2 hPa WSW 7.2 mph /  11.6 km/h 9.2 mph /  14.8 km/h 92 % 0.00 in /  0 mm
05:52 36.8 °F /  2.7 °C 34.7 °F /  1.5 °C 29.45 in /  997.2 hPa SSW 4.9 mph /  7.9 km/h 13.0 mph /  20.9 km/h 92 % 0.00 in /  0 mm
05:57 36.9 °F /  2.7 °C 34.8 °F /  1.6 °C 29.46 in /  997.5 hPa SW 7.5 mph /  12.1 km/h 11.5 mph /  18.5 km/h 92 % 0.00 in /  0 mm
06:02 36.9 °F /  2.7 °C 34.8 °F /  1.6 °C 29.47 in /  997.9 hPa WSW 3.4 mph /  5.5 km/h 12.0 mph /  19.3 km/h 92 % 0.00 in /  0 mm
06:07 36.9 °F /  2.7 °C 34.8 °F /  1.6 °C 29.47 in /  997.9 hPa SSW 6.8 mph /  10.9 km/h 7.0 mph /  11.3 km/h 92 % 0.00 in /  0 mm
06:12 36.9 °F /  2.7 °C 34.8 °F /  1.6 °C 29.47 in /  997.9 hPa West 7.0 mph /  11.3 km/h 10.0 mph /  16.1 km/h 92 % 0.00 in /  0 mm
06:17 37.0 °F /  2.8 °C 34.9 °F /  1.6 °C 29.47 in /  997.9 hPa WSW 4.6 mph /  7.4 km/h 10.4 mph /  16.7 km/h 92 % 0.00 in /  0 mm
06:22 37.0 °F /  2.8 °C 34.9 °F /  1.6 °C 29.48 in /  998.2 hPa West 3.7 mph /  6 km/h 6.0 mph /  9.7 km/h 92 % 0.00 in /  0 mm
06:27 37.0 °F /  2.8 °C 34.6 °F /  1.4 °C 29.47 in /  997.9 hPa WSW 3.8 mph /  6.1 km/h 6.9 mph /  11.1 km/h 91 % 0.00 in /  0 mm
06:32 37.0 °F /  2.8 °C 34.6 °F /  1.4 °C 29.48 in /  998.2 hPa WSW 4.5 mph /  7.2 km/h 6.0 mph /  9.7 km/h 91 % 0.00 in /  0 mm
06:37 37.0 °F /  2.8 °C 34.6 °F /  1.4 °C 29.48 in /  998.2 hPa WSW 2.6 mph /  4.2 km/h 10.4 mph /  16.7 km/h 91 % 0.00 in /  0 mm
06:42 37.0 °F /  2.8 °C 34.6 °F /  1.4 °C 29.48 in /  998.2 hPa WSW 6.3 mph /  10.1 km/h 11.5 mph /  18.5 km/h 91 % 0.00 in /  0 mm
06:48 37.0 °F /  2.8 °C 34.6 °F /  1.4 °C 29.49 in /  998.5 hPa SW 4.8 mph /  7.7 km/h 6.0 mph /  9.7 km/h 91 % 0.00 in /  0 mm
06:53 37.0 °F /  2.8 °C 34.6 °F /  1.4 °C 29.49 in /  998.5 hPa West 5.5 mph /  8.9 km/h 9.2 mph /  14.8 km/h 91 % 0.00 in /  0 mm
06:58 37.0 °F /  2.8 °C 34.6 °F /  1.4 °C 29.50 in /  998.9 hPa WSW 4.3 mph /  6.9 km/h 6.9 mph /  11.1 km/h 91 % 0.00 in /  0 mm
07:03 37.1 °F /  2.8 °C 34.7 °F /  1.5 °C 29.50 in /  998.9 hPa WNW 5.0 mph /  8 km/h 15.0 mph /  24.1 km/h 91 % 0.00 in /  0 mm
07:08 37.1 °F /  2.8 °C 34.4 °F /  1.3 °C 29.51 in /  999.2 hPa WNW 4.0 mph /  6.4 km/h 9.2 mph /  14.8 km/h 90 % 0.00 in /  0 mm
07:13 37.2 °F /  2.9 °C 34.5 °F /  1.4 °C 29.51 in /  999.2 hPa West 4.3 mph /  6.9 km/h 8.1 mph /  13 km/h 90 % 0.00 in /  0 mm
07:18 37.2 °F /  2.9 °C 34.5 °F /  1.4 °C 29.52 in /  999.5 hPa WSW 4.5 mph /  7.2 km/h 9.2 mph /  14.8 km/h 90 % 0.00 in /  0 mm
07:23 37.3 °F /  2.9 °C 34.6 °F /  1.4 °C 29.52 in /  999.5 hPa WSW 2.6 mph /  4.2 km/h 5.8 mph /  9.3 km/h 90 % 0.00 in /  0 mm
07:28 37.3 °F /  2.9 °C 34.6 °F /  1.4 °C 29.53 in /  999.9 hPa West 6.5 mph /  10.5 km/h 8.1 mph /  13 km/h 90 % 0.00 in /  0 mm
07:33 37.3 °F /  2.9 °C 34.6 °F /  1.4 °C 29.53 in /  999.9 hPa West 2.7 mph /  4.3 km/h 7.0 mph /  11.3 km/h 90 % 0.00 in /  0 mm
07:38 37.3 °F /  2.9 °C 34.6 °F /  1.4 °C 29.53 in /  999.9 hPa WSW 5.1 mph /  8.2 km/h 9.0 mph /  14.5 km/h 90 % 0.00 in /  0 mm
07:43 37.4 °F /  3 °C 34.7 °F /  1.5 °C 29.54 in /  1000.2 hPa West 2.2 mph /  3.5 km/h 6.0 mph /  9.7 km/h 90 % 0.00 in /  0 mm
07:48 37.4 °F /  3 °C 34.7 °F /  1.5 °C 29.54 in /  1000.2 hPa West 2.4 mph /  3.9 km/h 5.0 mph /  8 km/h 90 % 0.00 in /  0 mm
07:53 37.5 °F /  3.1 °C 34.8 °F /  1.6 °C 29.55 in /  1000.6 hPa WSW 4.2 mph /  6.8 km/h 8.1 mph /  13 km/h 90 % 0.00 in /  0 mm
07:58 37.6 °F /  3.1 °C 34.9 °F /  1.6 °C 29.55 in /  1000.6 hPa WNW 7.5 mph /  12.1 km/h 12.7 mph /  20.4 km/h 90 % 0.00 in /  0 mm
08:03 37.8 °F /  3.2 °C 34.8 °F /  1.6 °C 29.56 in /  1000.9 hPa WSW 7.2 mph /  11.6 km/h 13.0 mph /  20.9 km/h 89 % 0.00 in /  0 mm
08:09 38.0 °F /  3.3 °C 35.0 °F /  1.7 °C 29.56 in /  1000.9 hPa West 3.7 mph /  6 km/h 5.8 mph /  9.3 km/h 89 % 0.00 in /  0 mm
08:14 38.2 °F /  3.4 °C 35.0 °F /  1.7 °C 29.57 in /  1001.2 hPa SW 3.9 mph /  6.3 km/h 9.2 mph /  14.8 km/h 88 % 0.00 in /  0 mm
08:19 38.4 °F /  3.6 °C 34.9 °F /  1.6 °C 29.58 in /  1001.6 hPa NW 4.8 mph /  7.7 km/h 11.5 mph /  18.5 km/h 87 % 0.00 in /  0 mm
08:24 38.8 °F /  3.8 °C 35.3 °F /  1.8 °C 29.58 in /  1001.6 hPa NNW 6.3 mph /  10.1 km/h 11.5 mph /  18.5 km/h 87 % 0.00 in /  0 mm
08:29 39.0 °F /  3.9 °C 35.2 °F /  1.8 °C 29.58 in /  1001.6 hPa NW 6.2 mph /  10 km/h 13.8 mph /  22.2 km/h 86 % 0.00 in /  0 mm
08:34 39.2 °F /  4 °C 34.8 °F /  1.6 °C 29.58 in /  1001.6 hPa NW 5.7 mph /  9.2 km/h 12.7 mph /  20.4 km/h 84 % 0.00 in /  0 mm
08:39 39.1 °F /  3.9 °C 33.8 °F /  1 °C 29.60 in /  1002.3 hPa West 13.1 mph /  21.1 km/h 21.9 mph /  35.2 km/h 81 % 0.00 in /  0 mm
08:44 38.9 °F /  3.8 °C 32.9 °F /  0.5 °C 29.60 in /  1002.3 hPa WNW 9.7 mph /  15.6 km/h 19.6 mph /  31.5 km/h 79 % 0.00 in /  0 mm
08:49 38.8 °F /  3.8 °C 32.8 °F /  0.4 °C 29.61 in /  1002.6 hPa NW 9.1 mph /  14.6 km/h 12.7 mph /  20.4 km/h 79 % 0.00 in /  0 mm
08:54 38.7 °F /  3.7 °C 32.1 °F /  0.1 °C 29.61 in /  1002.6 hPa West 7.9 mph /  12.7 km/h 18.4 mph /  29.6 km/h 77 % 0.00 in /  0 mm
08:59 38.6 °F /  3.7 °C 31.7 °F /  -0.2 °C 29.62 in /  1002.9 hPa WNW 6.2 mph /  10 km/h 16.0 mph /  25.7 km/h 76 % 0.00 in /  0 mm
09:04 38.6 °F /  3.7 °C 31.4 °F /  -0.3 °C 29.62 in /  1002.9 hPa NW 12.0 mph /  19.3 km/h 19.6 mph /  31.5 km/h 75 % 0.00 in /  0 mm
09:09 38.4 °F /  3.6 °C 30.8 °F /  -0.7 °C 29.63 in /  1003.3 hPa West 8.0 mph /  12.9 km/h 19.6 mph /  31.5 km/h 74 % 0.00 in /  0 mm
09:14 38.2 °F /  3.4 °C 30.3 °F /  -0.9 °C 29.64 in /  1003.6 hPa West 9.4 mph /  15.1 km/h 15.0 mph /  24.1 km/h 73 % 0.00 in /  0 mm
09:19 38.0 °F /  3.3 °C 30.1 °F /  -1.1 °C 29.64 in /  1003.6 hPa West 6.4 mph /  10.3 km/h 15.0 mph /  24.1 km/h 73 % 0.00 in /  0 mm
09:24 37.6 °F /  3.1 °C 29.0 °F /  -1.7 °C 29.65 in /  1003.9 hPa NW 12.1 mph /  19.5 km/h 20.0 mph /  32.2 km/h 71 % 0.00 in /  0 mm
09:30 37.1 °F /  2.8 °C 28.6 °F /  -1.9 °C 29.66 in /  1004.3 hPa WNW 13.3 mph /  21.4 km/h 19.6 mph /  31.5 km/h 71 % 0.00 in /  0 mm
09:35 36.9 °F /  2.7 °C 28.4 °F /  -2 °C 29.66 in /  1004.3 hPa WNW 10.2 mph /  16.4 km/h 19.6 mph /  31.5 km/h 71 % 0.00 in /  0 mm
09:40 36.8 °F /  2.7 °C 28.6 °F /  -1.9 °C 29.67 in /  1004.6 hPa West 7.3 mph /  11.7 km/h 11.5 mph /  18.5 km/h 72 % 0.00 in /  0 mm
09:45 36.8 °F /  2.7 °C 28.3 °F /  -2.1 °C 29.67 in /  1004.6 hPa WSW 8.2 mph /  13.2 km/h 17.3 mph /  27.8 km/h 71 % 0.00 in /  0 mm
09:50 36.9 °F /  2.7 °C 28.0 °F /  -2.2 °C 29.68 in /  1005 hPa West 9.8 mph /  15.8 km/h 16.1 mph /  25.9 km/h 70 % 0.00 in /  0 mm
09:55 36.7 °F /  2.6 °C 27.1 °F /  -2.7 °C 29.68 in /  1005 hPa WNW 7.5 mph /  12.1 km/h 18.4 mph /  29.6 km/h 68 % 0.00 in /  0 mm
10:00 36.4 °F /  2.4 °C 26.8 °F /  -2.9 °C 29.69 in /  1005.3 hPa WNW 7.2 mph /  11.6 km/h 11.5 mph /  18.5 km/h 68 % 0.00 in /  0 mm
10:05 36.3 °F /  2.4 °C 26.4 °F /  -3.1 °C 29.70 in /  1005.6 hPa WNW 9.5 mph /  15.3 km/h 19.6 mph /  31.5 km/h 67 % 0.00 in /  0 mm
10:10 36.2 °F /  2.3 °C 26.3 °F /  -3.2 °C 29.70 in /  1005.6 hPa WNW 6.5 mph /  10.5 km/h 11.5 mph /  18.5 km/h 67 % 0.00 in /  0 mm
10:15 36.0 °F /  2.2 °C 25.7 °F /  -3.5 °C 29.70 in /  1005.6 hPa WNW 8.5 mph /  13.7 km/h 15.0 mph /  24.1 km/h 66 % 0.00 in /  0 mm
10:20 35.9 °F /  2.2 °C 25.6 °F /  -3.6 °C 29.71 in /  1006 hPa WNW 7.7 mph /  12.4 km/h 20.7 mph /  33.3 km/h 66 % 0.00 in /  0 mm
10:25 35.5 °F /  1.9 °C 24.5 °F /  -4.2 °C 29.72 in /  1006.3 hPa WNW 11.1 mph /  17.9 km/h 19.6 mph /  31.5 km/h 64 % 0.00 in /  0 mm
10:30 35.1 °F /  1.7 °C 24.5 °F /  -4.2 °C 29.73 in /  1006.7 hPa WNW 7.2 mph /  11.6 km/h 16.0 mph /  25.7 km/h 65 % 0.00 in /  0 mm
10:35 34.7 °F /  1.5 °C 24.5 °F /  -4.2 °C 29.74 in /  1007 hPa NNE 11.1 mph /  17.9 km/h 19.6 mph /  31.5 km/h 66 % 0.00 in /  0 mm
10:40 34.3 °F /  1.3 °C 24.1 °F /  -4.4 °C 29.73 in /  1006.7 hPa SW 9.1 mph /  14.6 km/h 19.0 mph /  30.6 km/h 66 % 0.00 in /  0 mm
10:45 34.0 °F /  1.1 °C 23.8 °F /  -4.6 °C 29.75 in /  1007.3 hPa WNW 5.3 mph /  8.5 km/h 18.4 mph /  29.6 km/h 66 % 0.00 in /  0 mm
10:50 33.6 °F /  0.9 °C 23.4 °F /  -4.8 °C 29.74 in /  1007 hPa West 11.0 mph /  17.7 km/h 18.4 mph /  29.6 km/h 66 % 0.00 in /  0 mm
10:55 33.6 °F /  0.9 °C 23.4 °F /  -4.8 °C 29.74 in /  1007 hPa WSW 8.9 mph /  14.3 km/h 17.3 mph /  27.8 km/h 66 % 0.00 in /  0 mm
11:00 33.8 °F /  1 °C 23.6 °F /  -4.7 °C 29.75 in /  1007.3 hPa WSW 10.8 mph /  17.4 km/h 16.1 mph /  25.9 km/h 66 % 0.00 in /  0 mm
11:05 34.1 °F /  1.2 °C 23.9 °F /  -4.5 °C 29.75 in /  1007.3 hPa WNW 7.0 mph /  11.3 km/h 17.0 mph /  27.4 km/h 66 % 0.00 in /  0 mm
11:10 34.3 °F /  1.3 °C 24.1 °F /  -4.4 °C 29.75 in /  1007.3 hPa WNW 9.0 mph /  14.5 km/h 20.0 mph /  32.2 km/h 66 % 0.00 in /  0 mm
11:15 34.4 °F /  1.3 °C 24.2 °F /  -4.3 °C 29.75 in /  1007.3 hPa WNW 7.0 mph /  11.3 km/h 18.0 mph /  29 km/h 66 % 0.00 in /  0 mm
11:21 34.4 °F /  1.3 °C 23.8 °F /  -4.6 °C 29.75 in /  1007.3 hPa WNW 7.0 mph /  11.3 km/h 22.0 mph /  35.4 km/h 65 % 0.00 in /  0 mm
11:26 34.5 °F /  1.4 °C 24.3 °F /  -4.3 °C 29.76 in /  1007.7 hPa West 7.0 mph /  11.3 km/h 14.0 mph /  22.5 km/h 66 % 0.00 in /  0 mm
11:30 34.6 °F /  1.4 °C 23.7 °F /  -4.6 °C 29.75 in /  1007.3 hPa West 7.0 mph /  11.3 km/h 17.0 mph /  27.4 km/h 64 % 0.00 in /  0 mm
11:35 34.7 °F /  1.5 °C 23.8 °F /  -4.6 °C 29.76 in /  1007.7 hPa WNW 8.0 mph /  12.9 km/h 17.0 mph /  27.4 km/h 64 % 0.00 in /  0 mm
11:40 34.8 °F /  1.6 °C 23.9 °F /  -4.5 °C 29.76 in /  1007.7 hPa WNW 7.0 mph /  11.3 km/h 17.0 mph /  27.4 km/h 64 % 0.00 in /  0 mm
11:45 34.9 °F /  1.6 °C 23.9 °F /  -4.5 °C 29.76 in /  1007.7 hPa WNW 9.0 mph /  14.5 km/h 17.0 mph /  27.4 km/h 64 % 0.00 in /  0 mm
11:50 34.9 °F /  1.6 °C 23.9 °F /  -4.5 °C 29.77 in /  1008 hPa WNW 8.0 mph /  12.9 km/h 14.0 mph /  22.5 km/h 64 % 0.00 in /  0 mm
11:55 34.8 °F /  1.6 °C 23.5 °F /  -4.7 °C 29.76 in /  1007.7 hPa West 6.9 mph /  11.1 km/h 12.7 mph /  20.4 km/h 63 % 0.00 in /  0 mm
12:01 34.8 °F /  1.6 °C 23.5 °F /  -4.7 °C 29.77 in /  1008 hPa NW 4.9 mph /  7.9 km/h 15.0 mph /  24.1 km/h 63 % 0.00 in /  0 mm
12:06 34.7 °F /  1.5 °C 22.6 °F /  -5.2 °C 29.77 in /  1008 hPa WNW 5.6 mph /  9 km/h 16.1 mph /  25.9 km/h 61 % 0.00 in /  0 mm
12:11 34.7 °F /  1.5 °C 22.2 °F /  -5.4 °C 29.77 in /  1008 hPa NNW 5.5 mph /  8.9 km/h 10.4 mph /  16.7 km/h 60 % 0.00 in /  0 mm
12:16 34.8 °F /  1.6 °C 22.3 °F /  -5.4 °C 29.77 in /  1008 hPa WNW 2.4 mph /  3.9 km/h 11.5 mph /  18.5 km/h 60 % 0.00 in /  0 mm
12:21 35.0 °F /  1.7 °C 22.5 °F /  -5.3 °C 29.78 in /  1008.4 hPa NNW 6.8 mph /  10.9 km/h 11.5 mph /  18.5 km/h 60 % 0.00 in /  0 mm
12:26 35.1 °F /  1.7 °C 23.0 °F /  -5 °C 29.78 in /  1008.4 hPa NNW 5.5 mph /  8.9 km/h 14.0 mph /  22.5 km/h 61 % 0.00 in /  0 mm
12:31 35.3 °F /  1.8 °C 22.8 °F /  -5.1 °C 29.79 in /  1008.7 hPa West 9.5 mph /  15.3 km/h 16.1 mph /  25.9 km/h 60 % 0.00 in /  0 mm
12:36 35.3 °F /  1.8 °C 22.0 °F /  -5.6 °C 29.79 in /  1008.7 hPa WNW 7.4 mph /  11.9 km/h 15.0 mph /  24.1 km/h 58 % 0.00 in /  0 mm
12:41 35.1 °F /  1.7 °C 21.4 °F /  -5.9 °C 29.79 in /  1008.7 hPa WSW 6.6 mph /  10.6 km/h 15.0 mph /  24.1 km/h 57 % 0.00 in /  0 mm
12:46 34.8 °F /  1.6 °C 21.1 °F /  -6.1 °C 29.80 in /  1009 hPa WNW 9.4 mph /  15.1 km/h 15.0 mph /  24.1 km/h 57 % 0.00 in /  0 mm
12:51 34.6 °F /  1.4 °C 20.9 °F /  -6.2 °C 29.79 in /  1008.7 hPa WNW 7.8 mph /  12.6 km/h 16.0 mph /  25.7 km/h 57 % 0.00 in /  0 mm
12:56 34.4 °F /  1.3 °C 20.3 °F /  -6.5 °C 29.79 in /  1008.7 hPa WSW 10.8 mph /  17.4 km/h 20.7 mph /  33.3 km/h 56 % 0.00 in /  0 mm
13:01 34.3 °F /  1.3 °C 19.8 °F /  -6.8 °C 29.79 in /  1008.7 hPa WNW 5.8 mph /  9.3 km/h 11.5 mph /  18.5 km/h 55 % 0.00 in /  0 mm
13:06 34.3 °F /  1.3 °C 19.8 °F /  -6.8 °C 29.79 in /  1008.7 hPa WNW 6.4 mph /  10.3 km/h 17.3 mph /  27.8 km/h 55 % 0.00 in /  0 mm
13:11 34.3 °F /  1.3 °C 19.8 °F /  -6.8 °C 29.79 in /  1008.7 hPa NW 8.2 mph /  13.2 km/h 12.7 mph /  20.4 km/h 55 % 0.00 in /  0 mm
13:16 34.3 °F /  1.3 °C 18.9 °F /  -7.3 °C 29.79 in /  1008.7 hPa WNW 8.8 mph /  14.2 km/h 13.8 mph /  22.2 km/h 53 % 0.00 in /  0 mm
13:21 34.3 °F /  1.3 °C 18.9 °F /  -7.3 °C 29.79 in /  1008.7 hPa WNW 6.4 mph /  10.3 km/h 17.3 mph /  27.8 km/h 53 % 0.00 in /  0 mm
13:26 34.4 °F /  1.3 °C 19.0 °F /  -7.2 °C 29.79 in /  1008.7 hPa NW 7.3 mph /  11.7 km/h 16.1 mph /  25.9 km/h 53 % 0.00 in /  0 mm
13:32 34.4 °F /  1.3 °C 18.1 °F /  -7.7 °C 29.79 in /  1008.7 hPa WNW 7.2 mph /  11.6 km/h 11.5 mph /  18.5 km/h 51 % 0.00 in /  0 mm
13:37 34.4 °F /  1.3 °C 18.6 °F /  -7.4 °C 29.80 in /  1009 hPa West 6.9 mph /  11.1 km/h 15.0 mph /  24.1 km/h 52 % 0.00 in /  0 mm
13:42 34.6 °F /  1.4 °C 18.8 °F /  -7.3 °C 29.80 in /  1009 hPa WNW 11.0 mph /  17.7 km/h 17.0 mph /  27.4 km/h 52 % 0.00 in /  0 mm
13:47 34.6 °F /  1.4 °C 18.3 °F /  -7.6 °C 29.80 in /  1009 hPa WNW 9.5 mph /  15.3 km/h 16.1 mph /  25.9 km/h 51 % 0.00 in /  0 mm
13:52 34.7 °F /  1.5 °C 17.9 °F /  -7.8 °C 29.81 in /  1009.4 hPa WNW 9.5 mph /  15.3 km/h 16.1 mph /  25.9 km/h 50 % 0.00 in /  0 mm
13:57 34.7 °F /  1.5 °C 17.5 °F /  -8.1 °C 29.82 in /  1009.7 hPa WNW 9.1 mph /  14.6 km/h 16.1 mph /  25.9 km/h 49 % 0.00 in /  0 mm
14:02 34.7 °F /  1.5 °C 18.4 °F /  -7.6 °C 29.83 in /  1010 hPa WNW 6.5 mph /  10.5 km/h 12.7 mph /  20.4 km/h 51 % 0.00 in /  0 mm
14:07 34.8 °F /  1.6 °C 19.4 °F /  -7 °C 29.83 in /  1010 hPa NNW 3.6 mph /  5.8 km/h 10.4 mph /  16.7 km/h 53 % 0.00 in /  0 mm
14:12 34.9 °F /  1.6 °C 18.1 °F /  -7.7 °C 29.83 in /  1010 hPa NW 4.2 mph /  6.8 km/h 10.4 mph /  16.7 km/h 50 % 0.00 in /  0 mm
14:17 35.0 °F /  1.7 °C 18.2 °F /  -7.7 °C 29.84 in /  1010.4 hPa WNW 8.8 mph /  14.2 km/h 12.0 mph /  19.3 km/h 50 % 0.00 in /  0 mm
14:22 35.0 °F /  1.7 °C 18.2 °F /  -7.7 °C 29.84 in /  1010.4 hPa WNW 4.9 mph /  7.9 km/h 11.0 mph /  17.7 km/h 50 % 0.00 in /  0 mm
14:27 35.0 °F /  1.7 °C 18.7 °F /  -7.4 °C 29.83 in /  1010 hPa WNW 4.1 mph /  6.6 km/h 9.2 mph /  14.8 km/h 51 % 0.00 in /  0 mm
14:32 34.8 °F /  1.6 °C 16.6 °F /  -8.6 °C 29.84 in /  1010.4 hPa NNW 7.4 mph /  11.9 km/h 13.8 mph /  22.2 km/h 47 % 0.00 in /  0 mm
14:37 34.7 °F /  1.5 °C 17.0 °F /  -8.3 °C 29.83 in /  1010 hPa WNW 5.8 mph /  9.3 km/h 14.0 mph /  22.5 km/h 48 % 0.00 in /  0 mm
14:42 34.5 °F /  1.4 °C 18.2 °F /  -7.7 °C 29.84 in /  1010.4 hPa WNW 6.7 mph /  10.8 km/h 11.5 mph /  18.5 km/h 51 % 0.00 in /  0 mm
14:47 34.4 °F /  1.3 °C 18.1 °F /  -7.7 °C 29.84 in /  1010.4 hPa NW 3.3 mph /  5.3 km/h 9.2 mph /  14.8 km/h 51 % 0.00 in /  0 mm
14:52 34.2 °F /  1.2 °C 17.5 °F /  -8.1 °C 29.84 in /  1010.4 hPa NW 6.4 mph /  10.3 km/h 11.5 mph /  18.5 km/h 50 % 0.00 in /  0 mm
14:57 33.9 °F /  1.1 °C 15.8 °F /  -9 °C 29.85 in /  1010.7 hPa WNW 6.1 mph /  9.8 km/h 12.7 mph /  20.4 km/h 47 % 0.00 in /  0 mm
15:02 33.6 °F /  0.9 °C 16.5 °F /  -8.6 °C 29.85 in /  1010.7 hPa WNW 5.0 mph /  8 km/h 9.0 mph /  14.5 km/h 49 % 0.00 in /  0 mm
15:07 33.5 °F /  0.8 °C 16.4 °F /  -8.7 °C 29.85 in /  1010.7 hPa NW 4.3 mph /  6.9 km/h 5.8 mph /  9.3 km/h 49 % 0.00 in /  0 mm
15:12 33.4 °F /  0.8 °C 16.3 °F /  -8.7 °C 29.85 in /  1010.7 hPa WNW 4.7 mph /  7.6 km/h 11.5 mph /  18.5 km/h 49 % 0.00 in /  0 mm
15:17 33.3 °F /  0.7 °C 16.2 °F /  -8.8 °C 29.85 in /  1010.7 hPa West 2.4 mph /  3.9 km/h 5.8 mph /  9.3 km/h 49 % 0.00 in /  0 mm
15:23 33.1 °F /  0.6 °C 15.0 °F /  -9.4 °C 29.85 in /  1010.7 hPa WNW 6.1 mph /  9.8 km/h 12.0 mph /  19.3 km/h 47 % 0.00 in /  0 mm
15:28 32.9 °F /  0.5 °C 14.8 °F /  -9.6 °C 29.85 in /  1010.7 hPa NW 6.9 mph /  11.1 km/h 13.8 mph /  22.2 km/h 47 % 0.00 in /  0 mm
15:33 32.7 °F /  0.4 °C 15.6 °F /  -9.1 °C 29.85 in /  1010.7 hPa WSW 5.2 mph /  8.4 km/h 8.1 mph /  13 km/h 49 % 0.00 in /  0 mm
15:38 32.5 °F /  0.3 °C 15.4 °F /  -9.2 °C 29.86 in /  1011.1 hPa WNW 4.7 mph /  7.6 km/h 10.4 mph /  16.7 km/h 49 % 0.00 in /  0 mm
15:43 32.4 °F /  0.2 °C 15.3 °F /  -9.3 °C 29.86 in /  1011.1 hPa SW 5.7 mph /  9.2 km/h 11.5 mph /  18.5 km/h 49 % 0.00 in /  0 mm
15:48 32.3 °F /  0.2 °C 15.7 °F /  -9.1 °C 29.86 in /  1011.1 hPa West 5.0 mph /  8 km/h 11.5 mph /  18.5 km/h 50 % 0.00 in /  0 mm
15:53 32.1 °F /  0.1 °C 15.5 °F /  -9.2 °C 29.86 in /  1011.1 hPa NW 5.8 mph /  9.3 km/h 10.4 mph /  16.7 km/h 50 % 0.00 in /  0 mm
15:58 32.0 °F /  0 °C 15.4 °F /  -9.2 °C 29.87 in /  1011.4 hPa WNW 5.0 mph /  8 km/h 11.5 mph /  18.5 km/h 50 % 0.00 in /  0 mm
16:03 31.9 °F /  -0.1 °C 15.3 °F /  -9.3 °C 29.87 in /  1011.4 hPa WNW 3.5 mph /  5.6 km/h 12.0 mph /  19.3 km/h 50 % 0.00 in /  0 mm
16:08 31.8 °F /  -0.1 °C 15.7 °F /  -9.1 °C 29.87 in /  1011.4 hPa West 4.0 mph /  6.4 km/h 8.1 mph /  13 km/h 51 % 0.00 in /  0 mm
16:13 31.7 °F /  -0.2 °C 15.6 °F /  -9.1 °C 29.88 in /  1011.7 hPa NW 5.8 mph /  9.3 km/h 9.2 mph /  14.8 km/h 51 % 0.00 in /  0 mm
16:18 31.7 °F /  -0.2 °C 16.1 °F /  -8.8 °C 29.88 in /  1011.7 hPa WSW 3.2 mph /  5.1 km/h 8.1 mph /  13 km/h 52 % 0.00 in /  0 mm
16:23 31.6 °F /  -0.2 °C 15.1 °F /  -9.4 °C 29.88 in /  1011.7 hPa NW 4.1 mph /  6.6 km/h 9.2 mph /  14.8 km/h 50 % 0.00 in /  0 mm
16:28 31.5 °F /  -0.3 °C 15.4 °F /  -9.2 °C 29.89 in /  1012.1 hPa WNW 3.5 mph /  5.6 km/h 8.1 mph /  13 km/h 51 % 0.00 in /  0 mm
16:33 31.4 °F /  -0.3 °C 15.3 °F /  -9.3 °C 29.90 in /  1012.4 hPa WNW 6.6 mph /  10.6 km/h 9.2 mph /  14.8 km/h 51 % 0.00 in /  0 mm
16:38 31.4 °F /  -0.3 °C 15.3 °F /  -9.3 °C 29.90 in /  1012.4 hPa West 3.1 mph /  5 km/h 5.0 mph /  8 km/h 51 % 0.00 in /  0 mm
16:43 31.3 °F /  -0.4 °C 15.2 °F /  -9.3 °C 29.90 in /  1012.4 hPa West 7.8 mph /  12.6 km/h 11.0 mph /  17.7 km/h 51 % 0.00 in /  0 mm
16:48 31.2 °F /  -0.4 °C 15.6 °F /  -9.1 °C 29.90 in /  1012.4 hPa West 4.5 mph /  7.2 km/h 6.0 mph /  9.7 km/h 52 % 0.00 in /  0 mm
16:53 31.1 °F /  -0.5 °C 15.5 °F /  -9.2 °C 29.90 in /  1012.4 hPa West 4.0 mph /  6.4 km/h 9.2 mph /  14.8 km/h 52 % 0.00 in /  0 mm
16:59 31.0 °F /  -0.6 °C 15.4 °F /  -9.2 °C 29.90 in /  1012.4 hPa WSW 5.2 mph /  8.4 km/h 11.0 mph /  17.7 km/h 52 % 0.00 in /  0 mm
17:04 30.9 °F /  -0.6 °C 15.3 °F /  -9.3 °C 29.91 in /  1012.8 hPa West 0.9 mph /  1.4 km/h 5.8 mph /  9.3 km/h 52 % 0.00 in /  0 mm
17:09 30.8 °F /  -0.7 °C 15.2 °F /  -9.3 °C 29.91 in /  1012.8 hPa West 4.0 mph /  6.4 km/h 9.0 mph /  14.5 km/h 52 % 0.00 in /  0 mm
17:14 30.7 °F /  -0.7 °C 15.6 °F /  -9.1 °C 29.91 in /  1012.8 hPa WSW 0.6 mph /  1 km/h 6.0 mph /  9.7 km/h 53 % 0.00 in /  0 mm
17:19 30.6 °F /  -0.8 °C 15.5 °F /  -9.2 °C 29.90 in /  1012.4 hPa West 2.5 mph /  4 km/h 5.0 mph /  8 km/h 53 % 0.00 in /  0 mm
17:24 30.5 °F /  -0.8 °C 15.4 °F /  -9.2 °C 29.90 in /  1012.4 hPa WNW 3.9 mph /  6.3 km/h 9.2 mph /  14.8 km/h 53 % 0.00 in /  0 mm
17:29 30.3 °F /  -0.9 °C 15.2 °F /  -9.3 °C 29.91 in /  1012.8 hPa WNW 3.1 mph /  5 km/h 8.1 mph /  13 km/h 53 % 0.00 in /  0 mm
17:34 30.2 °F /  -1 °C 15.1 °F /  -9.4 °C 29.91 in /  1012.8 hPa West 1.1 mph /  1.8 km/h 3.5 mph /  5.6 km/h 53 % 0.00 in /  0 mm
17:39 30.1 °F /  -1.1 °C 15.0 °F /  -9.4 °C 29.91 in /  1012.8 hPa NW 4.3 mph /  6.9 km/h 6.9 mph /  11.1 km/h 53 % 0.00 in /  0 mm
17:44 30.0 °F /  -1.1 °C 14.9 °F /  -9.5 °C 29.92 in /  1013.1 hPa WNW 2.0 mph /  3.2 km/h 4.6 mph /  7.4 km/h 53 % 0.00 in /  0 mm
17:49 29.9 °F /  -1.2 °C 15.3 °F /  -9.3 °C 29.92 in /  1013.1 hPa WNW 0.8 mph /  1.3 km/h 5.0 mph /  8 km/h 54 % 0.00 in /  0 mm
17:54 29.9 °F /  -1.2 °C 15.3 °F /  -9.3 °C 29.93 in /  1013.4 hPa West 4.4 mph /  7.1 km/h 6.0 mph /  9.7 km/h 54 % 0.00 in /  0 mm
17:59 29.8 °F /  -1.2 °C 15.2 °F /  -9.3 °C 29.94 in /  1013.8 hPa WNW 3.4 mph /  5.5 km/h 8.0 mph /  12.9 km/h 54 % 0.00 in /  0 mm
18:04 29.8 °F /  -1.2 °C 15.2 °F /  -9.3 °C 29.95 in /  1014.1 hPa West 1.3 mph /  2.1 km/h 3.5 mph /  5.6 km/h 54 % 0.00 in /  0 mm
18:09 29.7 °F /  -1.3 °C 15.1 °F /  -9.4 °C 29.96 in /  1014.4 hPa NW 4.0 mph /  6.4 km/h 5.8 mph /  9.3 km/h 54 % 0.00 in /  0 mm
18:14 29.7 °F /  -1.3 °C 15.5 °F /  -9.2 °C 29.95 in /  1014.1 hPa WNW 4.6 mph /  7.4 km/h 6.9 mph /  11.1 km/h 55 % 0.00 in /  0 mm
18:19 29.6 °F /  -1.3 °C 15.0 °F /  -9.4 °C 29.95 in /  1014.1 hPa NW 2.9 mph /  4.7 km/h 9.2 mph /  14.8 km/h 54 % 0.00 in /  0 mm
18:24 29.6 °F /  -1.3 °C 15.0 °F /  -9.4 °C 29.96 in /  1014.4 hPa WSW 3.2 mph /  5.1 km/h 5.8 mph /  9.3 km/h 54 % 0.00 in /  0 mm
18:29 29.6 °F /  -1.3 °C 15.0 °F /  -9.4 °C 29.96 in /  1014.4 hPa WNW 0.5 mph /  0.8 km/h 4.6 mph /  7.4 km/h 54 % 0.00 in /  0 mm
18:34 29.6 °F /  -1.3 °C 15.0 °F /  -9.4 °C 29.96 in /  1014.4 hPa NW 4.9 mph /  7.9 km/h 5.0 mph /  8 km/h 54 % 0.00 in /  0 mm
18:39 29.5 °F /  -1.4 °C 14.9 °F /  -9.5 °C 29.96 in /  1014.4 hPa WNW 5.1 mph /  8.2 km/h 8.0 mph /  12.9 km/h 54 % 0.00 in /  0 mm
18:44 29.4 °F /  -1.4 °C 14.8 °F /  -9.6 °C 29.98 in /  1015.1 hPa WNW 2.9 mph /  4.7 km/h 8.0 mph /  12.9 km/h 54 % 0.00 in /  0 mm
18:50 29.4 °F /  -1.4 °C 14.8 °F /  -9.6 °C 29.98 in /  1015.1 hPa WNW 5.5 mph /  8.9 km/h 15.0 mph /  24.1 km/h 54 % 0.00 in /  0 mm
18:55 29.4 °F /  -1.4 °C 14.8 °F /  -9.6 °C 29.98 in /  1015.1 hPa WNW 3.8 mph /  6.1 km/h 8.1 mph /  13 km/h 54 % 0.00 in /  0 mm
19:00 29.3 °F /  -1.5 °C 14.7 °F /  -9.6 °C 29.99 in /  1015.5 hPa NW 3.2 mph /  5.1 km/h 4.6 mph /  7.4 km/h 54 % 0.00 in /  0 mm
19:05 29.3 °F /  -1.5 °C 14.7 °F /  -9.6 °C 29.99 in /  1015.5 hPa WSW 0.8 mph /  1.3 km/h 8.1 mph /  13 km/h 54 % 0.00 in /  0 mm
19:10 29.2 °F /  -1.6 °C 14.2 °F /  -9.9 °C 30.00 in /  1015.8 hPa WNW 6.3 mph /  10.1 km/h 10.4 mph /  16.7 km/h 53 % 0.00 in /  0 mm
19:15 29.2 °F /  -1.6 °C 14.2 °F /  -9.9 °C 30.00 in /  1015.8 hPa NW 5.6 mph /  9 km/h 10.4 mph /  16.7 km/h 53 % 0.00 in /  0 mm
19:20 29.1 °F /  -1.6 °C 14.1 °F /  -9.9 °C 30.00 in /  1015.8 hPa WNW 4.4 mph /  7.1 km/h 10.4 mph /  16.7 km/h 53 % 0.00 in /  0 mm
19:25 29.1 °F /  -1.6 °C 14.1 °F /  -9.9 °C 30.00 in /  1015.8 hPa West 4.4 mph /  7.1 km/h 11.5 mph /  18.5 km/h 53 % 0.00 in /  0 mm
19:30 29.0 °F /  -1.7 °C 14.0 °F /  -10 °C 30.00 in /  1015.8 hPa WNW 5.1 mph /  8.2 km/h 11.0 mph /  17.7 km/h 53 % 0.00 in /  0 mm
19:35 29.0 °F /  -1.7 °C 14.0 °F /  -10 °C 30.00 in /  1015.8 hPa WSW 3.3 mph /  5.3 km/h 4.6 mph /  7.4 km/h 53 % 0.00 in /  0 mm
19:40 28.9 °F /  -1.7 °C 13.9 °F /  -10.1 °C 30.01 in /  1016.1 hPa NW 6.5 mph /  10.5 km/h 10.4 mph /  16.7 km/h 53 % 0.00 in /  0 mm
19:45 28.8 °F /  -1.8 °C 14.2 °F /  -9.9 °C 30.01 in /  1016.1 hPa NW 5.5 mph /  8.9 km/h 11.5 mph /  18.5 km/h 54 % 0.00 in /  0 mm
19:50 28.8 °F /  -1.8 °C 14.2 °F /  -9.9 °C 30.01 in /  1016.1 hPa West 4.3 mph /  6.9 km/h 8.1 mph /  13 km/h 54 % 0.00 in /  0 mm
19:55 28.7 °F /  -1.8 °C 14.1 °F /  -9.9 °C 30.01 in /  1016.1 hPa WNW 4.7 mph /  7.6 km/h 6.9 mph /  11.1 km/h 54 % 0.00 in /  0 mm
20:00 28.6 °F /  -1.9 °C 14.5 °F /  -9.7 °C 30.01 in /  1016.1 hPa NW 4.1 mph /  6.6 km/h 6.0 mph /  9.7 km/h 55 % 0.00 in /  0 mm
20:05 28.5 °F /  -1.9 °C 14.4 °F /  -9.8 °C 30.01 in /  1016.1 hPa West 4.9 mph /  7.9 km/h 10.0 mph /  16.1 km/h 55 % 0.00 in /  0 mm
20:10 28.4 °F /  -2 °C 14.3 °F /  -9.8 °C 30.01 in /  1016.1 hPa WNW 4.6 mph /  7.4 km/h 8.1 mph /  13 km/h 55 % 0.00 in /  0 mm
20:16 28.4 °F /  -2 °C 13.9 °F /  -10.1 °C 30.02 in /  1016.5 hPa WNW 4.7 mph /  7.6 km/h 7.0 mph /  11.3 km/h 54 % 0.00 in /  0 mm
20:21 28.3 °F /  -2.1 °C 13.8 °F /  -10.1 °C 30.02 in /  1016.5 hPa West 2.0 mph /  3.2 km/h 6.0 mph /  9.7 km/h 54 % 0.00 in /  0 mm
20:26 28.2 °F /  -2.1 °C 13.7 °F /  -10.2 °C 30.02 in /  1016.5 hPa West 5.0 mph /  8 km/h 10.0 mph /  16.1 km/h 54 % 0.00 in /  0 mm
20:31 28.1 °F /  -2.2 °C 13.6 °F /  -10.2 °C 30.01 in /  1016.1 hPa West 5.0 mph /  8 km/h 10.0 mph /  16.1 km/h 54 % 0.00 in /  0 mm
20:36 28.1 °F /  -2.2 °C 13.6 °F /  -10.2 °C 30.01 in /  1016.1 hPa WNW 2.7 mph /  4.3 km/h 6.9 mph /  11.1 km/h 54 % 0.00 in /  0 mm
20:41 28.0 °F /  -2.2 °C 13.1 °F /  -10.5 °C 30.01 in /  1016.1 hPa WNW 2.0 mph /  3.2 km/h 9.0 mph /  14.5 km/h 53 % 0.00 in /  0 mm
20:46 27.9 °F /  -2.3 °C 13.0 °F /  -10.6 °C 30.02 in /  1016.5 hPa WNW 3.0 mph /  4.8 km/h 13.0 mph /  20.9 km/h 53 % 0.00 in /  0 mm
20:51 27.9 °F /  -2.3 °C 13.4 °F /  -10.3 °C 30.02 in /  1016.5 hPa WNW 5.0 mph /  8 km/h 9.0 mph /  14.5 km/h 54 % 0.00 in /  0 mm
20:56 27.9 °F /  -2.3 °C 13.8 °F /  -10.1 °C 30.02 in /  1016.5 hPa WNW 5.0 mph /  8 km/h 12.0 mph /  19.3 km/h 55 % 0.00 in /  0 mm
21:01 27.9 °F /  -2.3 °C 14.2 °F /  -9.9 °C 30.02 in /  1016.5 hPa WNW 1.8 mph /  2.9 km/h 3.5 mph /  5.6 km/h 56 % 0.00 in /  0 mm
21:06 27.8 °F /  -2.3 °C 14.1 °F /  -9.9 °C 30.02 in /  1016.5 hPa WNW 3.0 mph /  4.8 km/h 13.0 mph /  20.9 km/h 56 % 0.00 in /  0 mm
21:11 27.8 °F /  -2.3 °C 14.1 °F /  -9.9 °C 30.03 in /  1016.8 hPa WNW 3.0 mph /  4.8 km/h 10.0 mph /  16.1 km/h 56 % 0.00 in /  0 mm
21:16 27.7 °F /  -2.4 °C 13.6 °F /  -10.2 °C 30.04 in /  1017.2 hPa West 3.0 mph /  4.8 km/h 8.0 mph /  12.9 km/h 55 % 0.00 in /  0 mm
21:21 27.7 °F /  -2.4 °C 13.6 °F /  -10.2 °C 30.03 in /  1016.8 hPa WNW 2.0 mph /  3.2 km/h 6.0 mph /  9.7 km/h 55 % 0.00 in /  0 mm
21:26 27.6 °F /  -2.4 °C 13.9 °F /  -10.1 °C 30.03 in /  1016.8 hPa WNW 2.0 mph /  3.2 km/h 8.0 mph /  12.9 km/h 56 % 0.00 in /  0 mm
21:31 27.5 °F /  -2.5 °C 13.8 °F /  -10.1 °C 30.04 in /  1017.2 hPa WNW 2.0 mph /  3.2 km/h 5.0 mph /  8 km/h 56 % 0.00 in /  0 mm
21:36 27.4 °F /  -2.6 °C 14.2 °F /  -9.9 °C 30.04 in /  1017.2 hPa WNW 1.0 mph /  1.6 km/h 7.0 mph /  11.3 km/h 57 % 0.00 in /  0 mm
21:41 27.3 °F /  -2.6 °C 14.1 °F /  -9.9 °C 30.04 in /  1017.2 hPa West 3.0 mph /  4.8 km/h 10.0 mph /  16.1 km/h 57 % 0.00 in /  0 mm
21:46 27.2 °F /  -2.7 °C 14.0 °F /  -10 °C 30.04 in /  1017.2 hPa WNW 3.0 mph /  4.8 km/h 8.0 mph /  12.9 km/h 57 % 0.00 in /  0 mm
21:51 27.2 °F /  -2.7 °C 14.0 °F /  -10 °C 30.05 in /  1017.5 hPa West 2.0 mph /  3.2 km/h 6.0 mph /  9.7 km/h 57 % 0.00 in /  0 mm
21:56 27.1 °F /  -2.7 °C 13.9 °F /  -10.1 °C 30.05 in /  1017.5 hPa West 3.0 mph /  4.8 km/h 6.0 mph /  9.7 km/h 57 % 0.00 in /  0 mm
22:01 27.0 °F /  -2.8 °C 13.8 °F /  -10.1 °C 30.05 in /  1017.5 hPa North 3.1 mph /  5 km/h 5.8 mph /  9.3 km/h 57 % 0.00 in /  0 mm
22:06 26.9 °F /  -2.8 °C 13.7 °F /  -10.2 °C 30.05 in /  1017.5 hPa West 2.2 mph /  3.5 km/h 3.5 mph /  5.6 km/h 57 % 0.00 in /  0 mm
22:11 26.8 °F /  -2.9 °C 13.6 °F /  -10.2 °C 30.05 in /  1017.5 hPa WNW 3.6 mph /  5.8 km/h 5.8 mph /  9.3 km/h 57 % 0.00 in /  0 mm
22:16 26.7 °F /  -2.9 °C 13.9 °F /  -10.1 °C 30.05 in /  1017.5 hPa WNW 4.5 mph /  7.2 km/h 8.1 mph /  13 km/h 58 % 0.00 in /  0 mm
22:21 26.7 °F /  -2.9 °C 13.9 °F /  -10.1 °C 30.05 in /  1017.5 hPa WNW 0.7 mph /  1.1 km/h 3.5 mph /  5.6 km/h 58 % 0.00 in /  0 mm
22:26 26.6 °F /  -3 °C 13.8 °F /  -10.1 °C 30.05 in /  1017.5 hPa Calm   2.3 mph /  3.7 km/h 58 % 0.00 in /  0 mm
22:31 26.5 °F /  -3.1 °C 13.7 °F /  -10.2 °C 30.05 in /  1017.5 hPa WNW 1.8 mph /  2.9 km/h 5.8 mph /  9.3 km/h 58 % 0.00 in /  0 mm
22:36 26.5 °F /  -3.1 °C 14.1 °F /  -9.9 °C 30.04 in /  1017.2 hPa WNW 3.2 mph /  5.1 km/h 5.8 mph /  9.3 km/h 59 % 0.00 in /  0 mm
22:41 26.4 °F /  -3.1 °C 13.6 °F /  -10.2 °C 30.04 in /  1017.2 hPa WNW 1.7 mph /  2.7 km/h 3.5 mph /  5.6 km/h 58 % 0.00 in /  0 mm
22:46 26.3 °F /  -3.2 °C 13.9 °F /  -10.1 °C 30.04 in /  1017.2 hPa WNW 0.8 mph /  1.3 km/h 3.5 mph /  5.6 km/h 59 % 0.00 in /  0 mm
22:51 26.2 °F /  -3.2 °C 14.2 °F /  -9.9 °C 30.04 in /  1017.2 hPa WNW 1.1 mph /  1.8 km/h 3.5 mph /  5.6 km/h 60 % 0.00 in /  0 mm
22:56 26.1 °F /  -3.3 °C 14.1 °F /  -9.9 °C 30.04 in /  1017.2 hPa WNW 0.3 mph /  0.5 km/h 2.3 mph /  3.7 km/h 60 % 0.00 in /  0 mm
23:01 26.0 °F /  -3.3 °C 14.0 °F /  -10 °C 30.04 in /  1017.2 hPa WNW 1.2 mph /  1.9 km/h 2.3 mph /  3.7 km/h 60 % 0.00 in /  0 mm
23:06 25.9 °F /  -3.4 °C 14.3 °F /  -9.8 °C 30.04 in /  1017.2 hPa Calm   1.2 mph /  1.9 km/h 61 % 0.00 in /  0 mm
23:11 25.8 °F /  -3.4 °C 14.2 °F /  -9.9 °C 30.04 in /  1017.2 hPa Calm   1.0 mph /  1.6 km/h 61 % 0.00 in /  0 mm
23:16 25.7 °F /  -3.5 °C 14.1 °F /  -9.9 °C 30.04 in /  1017.2 hPa WSW 0.2 mph /  0.3 km/h 2.3 mph /  3.7 km/h 61 % 0.00 in /  0 mm
23:22 25.6 °F /  -3.6 °C 14.0 °F /  -10 °C 30.05 in /  1017.5 hPa Calm     61 % 0.00 in /  0 mm
23:27 25.5 °F /  -3.6 °C 14.3 °F /  -9.8 °C 30.04 in /  1017.2 hPa Calm     62 % 0.00 in /  0 mm
23:32 25.4 °F /  -3.7 °C 14.2 °F /  -9.9 °C 30.05 in /  1017.5 hPa WSW 0.5 mph /  0.8 km/h 2.3 mph /  3.7 km/h 62 % 0.00 in /  0 mm
23:37 25.3 °F /  -3.7 °C 14.1 °F /  -9.9 °C 30.05 in /  1017.5 hPa Calm     62 % 0.00 in /  0 mm
23:42 25.2 °F /  -3.8 °C 14.4 °F /  -9.8 °C 30.06 in /  1017.8 hPa Calm     63 % 0.00 in /  0 mm
23:47 25.1 °F /  -3.8 °C 14.3 °F /  -9.8 °C 30.05 in /  1017.5 hPa WNW 1.9 mph /  3.1 km/h 3.5 mph /  5.6 km/h 63 % 0.00 in /  0 mm
23:52 25.0 °F /  -3.9 °C 14.5 °F /  -9.7 °C 30.05 in /  1017.5 hPa Calm     64 % 0.00 in /  0 mm
23:57 24.9 °F /  -3.9 °C 14.4 °F /  -9.8 °C 30.06 in /  1017.8 hPa WNW 1.1 mph /  1.8 km/h 3.5 mph /  5.6 km/h 64 % 0.00 in /  0 mm
Crab Meadow Weather
Compliments of Weather Underground - 3 mb

Script developed by  Jim McMurry - jmcmurry@mwt.net Adapted for the template by  Wim van der Kuil - Leuven-Template.eu

Weather Terms: Wind Chill Advisory - Dangerous wind chills of -20°F to -30°F.